Time;durP1;ratioP1;P1;durP2;ratioP2;P2;SDS_P1;SDS_P2;PMS_P1;PMS_P2;Temp;Humidity;BMP_temperature;BMP_pressure;BME280_temperature;BME280_humidity;BME280_pressure;Samples;Min_cycle;Max_cycle;Signal;HPM_P1;HPM_P2
2022/09/11 00:00:29;;;;;;;60.95;38.30;;;14.30;99.90;;;;;;4969553;28;20472;-65
2022/09/11 00:02:55;;;;;;;59.25;36.88;;;14.30;99.90;;;;;;4970018;28;20125;-65
2022/09/11 00:05:21;;;;;;;68.15;41.78;;;14.30;99.90;;;;;;4960239;28;20086;-65
2022/09/11 00:07:46;;;;;;;66.95;42.22;;;14.30;99.90;;;;;;4969815;28;20043;-65
2022/09/11 00:10:12;;;;;;;59.25;37.60;;;14.20;99.90;;;;;;4967034;28;20182;-65
2022/09/11 00:12:39;;;;;;;63.58;38.55;;;14.20;99.90;;;;;;4969635;28;20057;-66
2022/09/11 00:15:06;;;;;;;61.95;39.60;;;14.20;99.90;;;;;;4967935;28;20054;-66
2022/09/11 00:17:32;;;;;;;59.07;38.50;;;14.20;99.90;;;;;;4968320;28;20058;-66
2022/09/11 00:20:00;;;;;;;59.72;36.78;;;14.10;99.90;;;;;;4968998;28;20294;-66
2022/09/11 00:22:26;;;;;;;57.78;38.83;;;14.10;99.90;;;;;;4969266;28;20062;-66
2022/09/11 00:24:53;;;;;;;68.10;40.60;;;14.10;99.90;;;;;;4967315;28;20159;-66
2022/09/11 00:27:20;;;;;;;57.15;38.33;;;14.10;99.90;;;;;;4967660;28;20055;-65
2022/09/11 00:29:45;;;;;;;63.10;36.63;;;14.00;99.90;;;;;;4966819;28;20090;-65
2022/09/11 00:32:11;;;;;;;60.15;36.35;;;14.00;99.90;;;;;;4968694;28;20070;-66
2022/09/11 00:34:38;;;;;;;67.13;39.00;;;14.00;99.90;;;;;;4969961;28;20122;-65
2022/09/11 00:37:04;;;;;;;64.03;38.38;;;13.90;99.90;;;;;;4968910;28;20050;-65
2022/09/11 00:39:30;;;;;;;62.83;37.88;;;13.90;99.90;;;;;;4975433;28;20057;-65
2022/09/11 00:41:55;;;;;;;59.63;37.75;;;13.90;99.90;;;;;;4968606;28;20047;-65
2022/09/11 00:44:24;;;;;;;61.70;38.53;;;13.90;99.90;;;;;;4962945;28;20046;-65
2022/09/11 00:46:55;;;;;;;69.80;39.63;;;13.90;99.90;;;;;;4955664;28;20050;-65
2022/09/11 00:49:51;;;;;;;64.25;40.13;;;13.90;99.90;;;;;;4969226;28;20050;-65
2022/09/11 00:52:29;;;;;;;59.95;34.90;;;13.80;99.90;;;;;;4968773;28;20039;-66
2022/09/11 00:55:03;;;;;;;55.35;36.80;;;13.80;99.90;;;;;;4968399;28;20055;-65
2022/09/11 00:57:45;;;;;;;56.90;36.75;;;13.80;99.90;;;;;;4969166;28;20035;-65
2022/09/11 01:00:12;;;;;;;60.88;37.40;;;13.80;99.90;;;;;;4967001;28;20061;-65
2022/09/11 01:02:41;;;;;;;60.07;38.53;;;13.70;99.90;;;;;;4969106;28;20042;-65
2022/09/11 01:05:08;;;;;;;61.03;36.70;;;13.70;99.90;;;;;;4969562;28;20046;-65
2022/09/11 01:07:35;;;;;;;58.20;36.10;;;13.70;99.90;;;;;;4969680;28;20046;-65
2022/09/11 01:10:04;;;;;;;58.00;37.17;;;13.70;99.90;;;;;;4968846;28;20050;-65
2022/09/11 01:13:00;;;;;;;68.30;40.90;;;13.70;99.90;;;;;;4969803;28;20051;-65
2022/09/11 01:15:37;;;;;;;65.95;40.25;;;13.70;99.90;;;;;;4967892;28;20047;-65
2022/09/11 01:18:48;;;;;;;54.67;35.35;;;13.60;99.90;;;;;;4967133;28;20393;-65
2022/09/11 01:21:44;;;;;;;58.88;38.83;;;13.60;99.90;;;;;;4958713;28;20530;-65
2022/09/11 01:24:47;;;;;;;62.13;39.80;;;13.60;99.90;;;;;;4969477;28;20069;-65
2022/09/11 01:27:19;;;;;;;59.85;37.67;;;13.50;99.90;;;;;;4967875;28;20055;-65
2022/09/11 01:29:51;;;;;;;62.70;38.28;;;13.50;99.90;;;;;;4969395;28;20050;-65
2022/09/11 01:32:40;;;;;;;63.20;38.75;;;13.50;99.90;;;;;;4964418;28;20074;-65
2022/09/11 01:35:14;;;;;;;54.47;36.42;;;13.50;99.90;;;;;;4961130;28;20101;-64
2022/09/11 01:37:55;;;;;;;56.53;38.22;;;13.50;99.90;;;;;;4970207;28;20038;-64
2022/09/11 01:40:42;;;;;;;57.38;37.13;;;13.50;99.90;;;;;;4970251;28;20169;-64
2022/09/11 01:43:18;;;;;;;54.42;34.53;;;13.50;99.90;;;;;;4954842;28;20464;-64
2022/09/11 01:45:47;;;;;;;52.83;33.40;;;13.50;99.90;;;;;;4962584;28;20078;-64
2022/09/11 01:48:16;;;;;;;52.78;35.88;;;13.40;99.90;;;;;;4968510;28;20101;-64
2022/09/11 01:50:46;;;;;;;56.00;34.67;;;13.40;99.90;;;;;;4966203;28;21526;-65
2022/09/11 01:53:16;;;;;;;52.95;36.53;;;13.40;99.90;;;;;;4968373;28;20496;-64
2022/09/11 01:55:49;;;;;;;61.50;37.88;;;13.40;99.90;;;;;;4967679;28;20455;-64
2022/09/11 01:58:29;;;;;;;64.25;39.65;;;13.30;99.90;;;;;;4965500;28;20043;-65
2022/09/11 02:01:23;;;;;;;60.75;39.08;;;13.40;99.90;;;;;;4961110;28;20051;-65
2022/09/11 02:04:09;;;;;;;65.05;41.10;;;13.30;99.90;;;;;;4957367;28;20054;-65
2022/09/11 02:07:02;;;;;;;65.93;41.25;;;13.30;99.90;;;;;;4968152;28;20566;-65
2022/09/11 02:09:43;;;;;;;67.10;41.10;;;13.30;99.90;;;;;;4969609;28;20047;-65
2022/09/11 02:12:14;;;;;;;66.88;43.03;;;13.30;99.90;;;;;;4967504;28;20420;-65
2022/09/11 02:14:46;;;;;;;67.70;41.58;;;13.30;99.90;;;;;;4971605;28;20046;-65
2022/09/11 02:17:25;;;;;;;64.78;41.17;;;13.30;99.90;;;;;;4958749;28;20054;-65
2022/09/11 02:19:56;;;;;;;69.55;41.70;;;13.30;99.90;;;;;;4971356;28;20051;-65
2022/09/11 02:22:23;;;;;;;68.35;40.92;;;13.20;99.90;;;;;;4971162;28;20498;-65
2022/09/11 02:24:49;;;;;;;68.47;42.45;;;13.20;99.90;;;;;;4966691;28;20050;-65
2022/09/11 02:27:23;;;;;;;71.18;43.72;;;13.20;99.90;;;;;;4970343;28;20134;-65
2022/09/11 02:29:49;;;;;;;72.05;41.92;;;13.30;99.90;;;;;;4971500;28;20123;-65
2022/09/11 02:32:17;;;;;;;68.72;42.88;;;13.20;99.90;;;;;;4970963;28;20043;-65
2022/09/11 02:34:45;;;;;;;;;;;13.20;99.90;;;;;;4971002;28;20042;-65
2022/09/11 02:37:20;;;;;;;72.97;42.10;;;13.20;99.90;;;;;;4971111;28;19933;-65
2022/09/11 02:40:25;;;;;;;62.28;42.08;;;13.20;99.90;;;;;;4958246;28;20453;-65
2022/09/11 02:43:21;;;;;;;72.82;39.95;;;13.20;99.90;;;;;;4941574;28;20147;-65
2022/09/11 02:46:11;;;;;;;74.93;42.45;;;13.30;99.90;;;;;;4962624;28;20096;-65
2022/09/11 02:49:14;;;;;;;68.20;39.70;;;13.20;99.90;;;;;;4966970;28;20098;-65
2022/09/11 02:51:50;;;;;;;66.68;41.70;;;13.20;99.90;;;;;;4957796;28;20113;-64
2022/09/11 02:54:47;;;;;;;70.50;44.08;;;13.20;99.90;;;;;;4969660;28;20066;-65
2022/09/11 02:57:22;;;;;;;69.00;43.55;;;13.20;99.90;;;;;;4960973;28;20093;-65
2022/09/11 03:00:04;;;;;;;67.03;41.30;;;13.20;99.90;;;;;;4968690;28;20050;-65
2022/09/11 03:02:32;;;;;;;62.92;38.08;;;13.20;99.90;;;;;;4971399;28;20073;-65
2022/09/11 03:04:58;;;;;;;;;;;13.10;99.90;;;;;;4970782;28;20138;-66
2022/09/11 03:07:24;;;;;;;63.42;42.03;;;13.10;99.90;;;;;;4970861;28;20431;-65
2022/09/11 03:09:51;;;;;;;65.28;41.70;;;13.10;99.90;;;;;;4969903;28;20039;-65
2022/09/11 03:12:17;;;;;;;57.38;39.67;;;13.10;99.90;;;;;;4969033;28;20151;-66
2022/09/11 03:14:43;;;;;;;59.03;38.42;;;13.10;99.90;;;;;;4970947;28;20093;-66
2022/09/11 03:17:08;;;;;;;56.70;38.53;;;13.10;99.90;;;;;;4964860;28;20078;-65
2022/09/11 03:19:34;;;;;;;63.58;36.80;;;13.10;99.90;;;;;;4966545;28;20109;-66
2022/09/11 03:22:01;;;;;;;58.15;36.25;;;13.10;99.90;;;;;;4970907;28;20115;-65
2022/09/11 03:24:26;;;;;;;55.15;38.15;;;13.10;99.90;;;;;;4969911;28;20086;-66
2022/09/11 03:26:52;;;;;;;51.78;34.88;;;13.10;99.90;;;;;;4970148;28;20089;-65
2022/09/11 03:29:17;;;;;;;54.63;35.63;;;13.00;99.90;;;;;;4970129;28;20049;-65
2022/09/11 03:31:43;;;;;;;56.13;37.83;;;13.00;99.90;;;;;;4970311;28;20121;-65
2022/09/11 03:34:09;;;;;;;50.67;33.95;;;13.00;99.90;;;;;;4969579;28;20074;-65
2022/09/11 03:36:35;;;;;;;49.15;32.17;;;13.00;99.90;;;;;;4967572;28;20051;-67
2022/09/11 03:39:01;;;;;;;49.92;33.70;;;13.00;99.90;;;;;;4969543;28;20058;-66
2022/09/11 03:41:27;;;;;;;50.22;34.55;;;13.00;99.90;;;;;;4963551;28;20050;-66
2022/09/11 03:43:53;;;;;;;51.17;33.30;;;12.90;99.90;;;;;;4945241;28;20047;-66
2022/09/11 03:46:18;;;;;;;44.55;32.70;;;12.90;99.90;;;;;;4969619;28;20094;-67
2022/09/11 03:48:47;;;;;;;49.22;33.67;;;12.90;99.90;;;;;;4969739;28;20117;-67
2022/09/11 03:51:13;;;;;;;45.75;31.45;;;12.90;99.90;;;;;;4969916;28;20052;-67
2022/09/11 03:53:40;;;;;;;44.22;31.38;;;12.90;99.90;;;;;;4962604;28;20045;-67
2022/09/11 03:56:06;;;;;;;46.35;30.73;;;12.90;99.90;;;;;;4969863;28;20050;-67
2022/09/11 03:58:31;;;;;;;43.42;29.92;;;12.80;99.90;;;;;;4969278;28;20443;-66
2022/09/11 04:00:57;;;;;;;40.55;28.73;;;12.80;99.90;;;;;;4968626;28;20244;-67
2022/09/11 04:03:23;;;;;;;43.30;30.40;;;12.80;99.90;;;;;;4968949;28;20407;-67
2022/09/11 04:06:00;;;;;;;40.42;30.27;;;12.80;99.90;;;;;;4969365;28;20050;-67
2022/09/11 04:08:26;;;;;;;49.03;32.65;;;12.80;99.90;;;;;;4964915;28;20408;-67
2022/09/11 04:10:56;;;;;;;46.92;30.88;;;12.80;99.90;;;;;;4968473;28;20046;-67
2022/09/11 04:13:30;;;;;;;58.75;35.85;;;12.80;99.90;;;;;;4966510;28;20050;-67
2022/09/11 04:16:01;;;;;;;43.92;30.30;;;12.70;99.90;;;;;;4968789;28;20047;-67
2022/09/11 04:18:29;;;;;;;40.92;29.70;;;12.70;99.90;;;;;;4966139;28;20043;-67
2022/09/11 04:20:54;;;;;;;49.00;33.53;;;12.70;99.90;;;;;;4969714;28;20042;-67
2022/09/11 04:23:21;;;;;;;50.75;32.90;;;12.70;99.90;;;;;;4966871;28;20057;-67
2022/09/11 04:25:47;;;;;;;44.60;31.08;;;12.70;99.90;;;;;;4966342;28;20039;-67
2022/09/11 04:28:13;;;;;;;42.28;30.55;;;12.70;99.90;;;;;;4959658;28;20094;-67
2022/09/11 04:30:39;;;;;;;45.00;31.73;;;12.70;99.90;;;;;;4968919;28;20089;-68
2022/09/11 04:33:05;;;;;;;43.95;31.67;;;12.70;99.90;;;;;;4968076;28;20046;-66
2022/09/11 04:35:39;;;;;;;50.92;32.35;;;12.80;99.90;;;;;;4968080;28;20043;-67
2022/09/11 04:38:05;;;;;;;46.88;31.90;;;12.80;99.90;;;;;;4953194;28;20537;-67
2022/09/11 04:40:32;;;;;;;49.00;34.40;;;12.70;99.90;;;;;;4960834;28;20126;-67
2022/09/11 04:42:59;;;;;;;45.43;31.00;;;12.70;99.90;;;;;;4968108;28;20779;-67
2022/09/11 04:45:26;;;;;;;49.15;33.30;;;12.80;99.90;;;;;;4967861;28;20341;-67
2022/09/11 04:47:52;;;;;;;44.03;31.95;;;12.70;99.90;;;;;;4968755;28;20476;-66
2022/09/11 04:50:18;;;;;;;45.72;31.45;;;12.70;99.90;;;;;;4968581;28;20038;-66
2022/09/11 04:52:44;;;;;;;48.97;31.15;;;12.70;99.90;;;;;;4961398;28;20050;-66
2022/09/11 04:55:10;;;;;;;48.63;29.20;;;12.70;99.90;;;;;;4968925;28;20113;-66
2022/09/11 04:57:37;;;;;;;43.35;29.98;;;12.70;99.90;;;;;;4962255;28;20878;-66
2022/09/11 05:00:05;;;;;;;43.10;29.92;;;12.70;99.90;;;;;;4967392;28;20423;-66
2022/09/11 05:02:31;;;;;;;;;;;12.70;99.90;;;;;;4970093;28;20066;-66
2022/09/11 05:04:57;;;;;;;36.72;28.25;;;12.60;99.90;;;;;;4965890;28;19922;-66
2022/09/11 05:07:24;;;;;;;42.15;29.02;;;12.60;99.90;;;;;;4968123;28;20065;-66
2022/09/11 05:09:53;;;;;;;38.28;27.48;;;12.60;99.90;;;;;;4968626;28;20500;-66
2022/09/11 05:12:20;;;;;;;38.25;27.90;;;12.60;99.90;;;;;;4967884;28;20050;-66
2022/09/11 05:14:45;;;;;;;34.85;26.15;;;12.60;99.90;;;;;;4962823;28;20055;-66
2022/09/11 05:17:12;;;;;;;37.85;28.08;;;12.60;99.90;;;;;;4967117;28;20050;-66
2022/09/11 05:19:39;;;;;;;34.63;26.98;;;12.60;99.90;;;;;;4967927;28;20042;-66
2022/09/11 05:22:06;;;;;;;36.90;26.20;;;12.60;99.90;;;;;;4966667;28;20047;-66
2022/09/11 05:24:31;;;;;;;37.58;29.02;;;12.70;99.90;;;;;;4964661;28;20047;-69
2022/09/11 05:27:00;;;;;;;36.15;25.88;;;12.70;99.90;;;;;;4968102;28;20393;-67
2022/09/11 05:29:29;;;;;;;38.45;27.23;;;12.70;99.90;;;;;;4968913;28;20034;-66
2022/09/11 05:31:57;;;;;;;33.15;25.92;;;12.80;99.90;;;;;;4968255;28;20420;-66
2022/09/11 05:34:27;;;;;;;32.20;26.13;;;12.90;99.90;;;;;;4967818;28;20105;-66
2022/09/11 05:36:56;;;;;;;31.13;24.48;;;12.90;99.90;;;;;;4968274;28;20077;-66
2022/09/11 05:39:23;;;;;;;38.92;26.63;;;12.90;99.90;;;;;;4968907;28;20051;-66
2022/09/11 05:41:54;;;;;;;41.50;25.23;;;12.90;99.90;;;;;;4964927;28;20408;-66
2022/09/11 05:44:19;;;;;;;36.58;26.85;;;13.00;99.90;;;;;;4972115;28;20054;-66
2022/09/11 05:46:47;;;;;;;34.35;25.65;;;13.00;99.90;;;;;;4971959;28;20093;-66
2022/09/11 05:49:13;;;;;;;38.38;27.95;;;13.00;99.90;;;;;;4971780;28;20050;-66
2022/09/11 05:51:40;;;;;;;30.63;25.17;;;13.00;99.90;;;;;;4972300;28;20046;-66
2022/09/11 05:54:06;;;;;;;33.70;25.60;;;13.10;99.90;;;;;;4971923;28;20077;-66
2022/09/11 05:56:32;;;;;;;35.15;27.52;;;13.10;99.90;;;;;;4971616;28;20039;-65
2022/09/11 05:58:58;;;;;;;33.30;25.83;;;13.10;99.90;;;;;;4967529;28;20034;-65
2022/09/11 06:01:26;;;;;;;32.35;23.58;;;13.20;99.90;;;;;;4970406;28;20531;-65
2022/09/11 06:03:52;;;;;;;40.08;27.98;;;13.20;99.90;;;;;;4969671;28;20071;-65
2022/09/11 06:06:21;;;;;;;40.65;29.55;;;13.30;99.90;;;;;;4971315;28;20424;-65
2022/09/11 06:08:48;;;;;;;46.65;28.98;;;13.30;99.90;;;;;;4971399;28;20046;-65
2022/09/11 06:11:16;;;;;;;47.72;33.92;;;13.40;99.90;;;;;;4969220;28;20055;-66
2022/09/11 06:13:45;;;;;;;41.88;30.25;;;13.40;99.90;;;;;;4970184;28;20046;-66
2022/09/11 06:16:14;;;;;;;39.00;27.95;;;13.50;99.90;;;;;;4966032;28;20053;-66
2022/09/11 06:18:40;;;;;;;38.38;29.45;;;13.50;99.90;;;;;;4970965;28;20045;-66
2022/09/11 06:21:09;;;;;;;42.13;31.00;;;13.60;99.90;;;;;;4966524;28;20412;-65
2022/09/11 06:23:35;;;;;;;39.63;27.73;;;13.60;99.90;;;;;;4968725;28;20081;-66
2022/09/11 06:26:07;;;;;;;38.95;29.27;;;13.70;99.90;;;;;;4969644;28;20047;-68
2022/09/11 06:28:37;;;;;;;39.45;28.05;;;13.70;99.90;;;;;;4969482;28;20054;-67
2022/09/11 06:31:08;;;;;;;37.53;29.58;;;13.80;99.90;;;;;;4968837;28;20042;-66
2022/09/11 06:33:36;;;;;;;35.92;26.40;;;13.80;99.90;;;;;;4966749;28;20524;-67
2022/09/11 06:36:04;;;;;;;38.65;27.88;;;13.80;99.90;;;;;;4971364;28;20055;-67
2022/09/11 06:38:33;;;;;;;40.88;29.02;;;13.90;99.90;;;;;;4971457;28;20058;-66
2022/09/11 06:41:03;;;;;;;33.40;25.73;;;13.90;99.90;;;;;;4970262;28;20127;-67
2022/09/11 06:43:29;;;;;;;40.78;29.42;;;14.00;99.90;;;;;;4961746;28;20133;-67
2022/09/11 06:46:03;;;;;;;43.25;30.50;;;14.10;99.90;;;;;;4967271;28;20038;-66
2022/09/11 06:48:29;;;;;;;45.30;33.55;;;14.10;99.90;;;;;;4970780;28;20054;-67
2022/09/11 06:50:56;;;;;;;39.97;29.02;;;14.30;99.90;;;;;;4970900;28;20122;-66
2022/09/11 06:53:22;;;;;;;36.40;26.77;;;14.40;99.90;;;;;;4967215;28;20229;-66
2022/09/11 06:55:47;;;;;;;35.75;27.42;;;14.40;99.90;;;;;;4963197;28;20104;-66
2022/09/11 06:58:13;;;;;;;36.30;29.63;;;14.50;99.90;;;;;;4969449;28;20172;-66
2022/09/11 07:00:39;;;;;;;42.25;30.40;;;14.70;99.90;;;;;;4970172;28;20110;-67
2022/09/11 07:03:05;;;;;;;34.85;27.55;;;14.90;99.90;;;;;;4968875;28;20050;-66
2022/09/11 07:05:32;;;;;;;39.72;27.83;;;15.10;99.90;;;;;;4964078;28;20047;-66
2022/09/11 07:07:58;;;;;;;36.20;26.23;;;15.40;99.90;;;;;;4965630;28;20793;-67
2022/09/11 07:10:24;;;;;;;35.00;27.00;;;15.70;99.90;;;;;;4966370;28;20043;-69
2022/09/11 07:12:52;;;;;;;34.60;25.42;;;16.00;99.90;;;;;;4967004;28;20046;-67
2022/09/11 07:15:18;;;;;;;33.58;27.13;;;16.30;99.90;;;;;;4970001;28;20058;-66
2022/09/11 07:17:43;;;;;;;31.60;25.10;;;16.70;99.90;;;;;;4971376;28;20043;-66
2022/09/11 07:20:09;;;;;;;28.90;23.77;;;17.00;99.90;;;;;;4970350;28;20051;-66
2022/09/11 07:22:35;;;;;;;27.63;23.15;;;17.40;99.90;;;;;;4970447;28;20039;-66
2022/09/11 07:25:02;;;;;;;27.98;23.52;;;17.70;99.90;;;;;;4970904;28;20053;-66
2022/09/11 07:27:30;;;;;;;26.70;23.08;;;18.10;99.90;;;;;;4970350;28;20062;-66
2022/09/11 07:29:56;;;;;;;29.10;23.20;;;18.40;99.90;;;;;;4968992;28;20057;-65
2022/09/11 07:32:21;;;;;;;26.38;21.60;;;18.60;99.90;;;;;;4967710;28;20046;-66
2022/09/11 07:34:48;;;;;;;29.05;22.48;;;18.90;99.90;;;;;;4970175;28;20039;-65
2022/09/11 07:37:14;;;;;;;24.77;21.90;;;19.00;99.90;;;;;;4969917;28;20039;-66
2022/09/11 07:39:40;;;;;;;28.58;20.25;;;19.20;99.90;;;;;;4970479;28;20061;-66
2022/09/11 07:42:06;;;;;;;24.20;21.15;;;19.40;99.90;;;;;;4963800;28;20464;-66
2022/09/11 07:44:35;;;;;;;25.60;21.05;;;19.60;99.90;;;;;;4966479;28;20066;-66
2022/09/11 07:47:01;;;;;;;23.58;20.65;;;19.60;99.90;;;;;;4968659;28;20080;-66
2022/09/11 07:49:27;;;;;;;25.35;22.70;;;19.70;99.90;;;;;;4962633;28;20042;-66
2022/09/11 07:51:54;;;;;;;30.40;23.23;;;19.90;99.90;;;;;;4967345;28;20047;-66
2022/09/11 07:54:20;;;;;;;28.15;21.25;;;20.10;99.90;;;;;;4969600;28;20061;-66
2022/09/11 07:56:46;;;;;;;25.20;21.02;;;20.30;99.90;;;;;;4966738;28;20049;-66
2022/09/11 07:59:12;;;;;;;27.70;19.50;;;20.50;99.90;;;;;;4969028;28;20540;-66
2022/09/11 08:01:38;;;;;;;31.02;21.33;;;20.60;99.90;;;;;;4966442;28;20484;-66
2022/09/11 08:04:06;;;;;;;26.15;18.40;;;20.50;99.90;;;;;;4968012;28;20047;-65
2022/09/11 08:06:34;;;;;;;23.10;18.63;;;20.60;99.90;;;;;;4954576;28;20055;-65
2022/09/11 08:09:09;;;;;;;24.30;20.48;;;20.60;99.90;;;;;;4965236;28;20042;-65
2022/09/11 08:11:41;;;;;;;28.63;20.50;;;20.70;99.90;;;;;;4968905;28;20043;-65
2022/09/11 08:14:08;;;;;;;25.50;22.38;;;20.80;99.90;;;;;;4966111;28;20046;-65
2022/09/11 08:16:37;;;;;;;25.15;19.42;;;20.90;99.90;;;;;;4968840;28;20054;-65
2022/09/11 08:19:04;;;;;;;21.10;18.05;;;21.10;99.90;;;;;;4962609;28;20039;-66
2022/09/11 08:21:30;;;;;;;25.33;19.38;;;21.20;99.90;;;;;;4966208;28;20054;-65
2022/09/11 08:23:56;;;;;;;21.48;16.50;;;21.40;99.90;;;;;;4966255;28;20127;-65
2022/09/11 08:26:25;;;;;;;21.33;16.92;;;21.40;99.90;;;;;;4969090;28;20446;-65
2022/09/11 08:28:54;;;;;;;19.88;17.73;;;21.30;99.90;;;;;;4968521;28;20073;-67
2022/09/11 08:31:22;;;;;;;29.95;19.75;;;21.30;99.90;;;;;;4968406;28;20043;-65
2022/09/11 08:33:50;;;;;;;21.25;17.38;;;21.30;99.90;;;;;;4964532;28;20190;-65
2022/09/11 08:36:16;;;;;;;19.70;14.20;;;21.40;99.90;;;;;;4966681;28;20496;-64
2022/09/11 08:38:43;;;;;;;18.95;11.55;;;21.50;99.90;;;;;;4966917;28;20039;-65
2022/09/11 08:41:24;;;;;;;22.50;11.40;;;21.40;99.90;;;;;;4955874;28;20070;-65
2022/09/11 08:43:57;;;;;;;19.17;14.30;;;21.50;99.90;;;;;;4963460;28;20043;-64
2022/09/11 08:46:31;;;;;;;17.67;11.60;;;21.20;99.90;;;;;;4968037;28;20121;-64
2022/09/11 08:49:05;;;;;;;35.67;16.15;;;20.90;99.90;;;;;;4968780;28;20135;-65
2022/09/11 08:51:31;;;;;;;20.50;14.02;;;21.00;99.90;;;;;;4965009;28;20054;-65
2022/09/11 08:53:58;;;;;;;13.43;9.30;;;21.10;99.90;;;;;;4968465;28;20038;-65
2022/09/11 08:56:28;;;;;;;13.93;9.37;;;20.90;99.90;;;;;;4959256;28;20039;-65
2022/09/11 08:59:06;;;;;;;16.27;11.85;;;20.80;99.90;;;;;;4967470;28;20381;-65
2022/09/11 09:01:36;;;;;;;;;;;20.60;99.90;;;;;;4969255;28;20074;-65
2022/09/11 09:04:17;;;;;;;18.40;11.75;;;20.40;99.90;;;;;;4964529;28;20097;-65
2022/09/11 09:07:20;;;;;;;18.00;12.50;;;20.50;99.90;;;;;;4966724;28;20045;-65
2022/09/11 09:10:12;;;;;;;12.95;10.90;;;20.50;99.90;;;;;;4958335;28;20101;-65
2022/09/11 09:13:01;;;;;;;22.65;11.70;;;20.30;99.90;;;;;;4968787;28;20132;-66
2022/09/11 09:16:01;;;;;;;13.30;9.95;;;20.30;99.90;;;;;;4961864;28;20042;-65
2022/09/11 09:18:43;;;;;;;18.40;13.10;;;20.20;99.90;;;;;;4970422;28;20057;-65
2022/09/11 09:21:15;;;;;;;12.45;10.18;;;20.10;99.90;;;;;;4970859;28;20162;-65
2022/09/11 09:23:51;;;;;;;12.02;10.82;;;20.00;99.90;;;;;;4970213;28;20046;-65
2022/09/11 09:26:18;;;;;;;13.00;10.45;;;20.00;99.90;;;;;;4968032;28;20098;-65
2022/09/11 09:28:46;;;;;;;25.35;12.88;;;19.90;99.90;;;;;;4965551;28;20045;-65
2022/09/11 09:31:16;;;;;;;16.65;12.45;;;19.90;99.90;;;;;;4966128;28;20098;-65
2022/09/11 09:34:05;;;;;;;20.15;10.65;;;19.80;99.90;;;;;;4970397;28;20054;-65
2022/09/11 09:36:57;;;;;;;12.30;10.30;;;19.70;99.90;;;;;;4966478;28;20162;-66
2022/09/11 09:39:24;;;;;;;18.17;10.73;;;19.70;99.90;;;;;;4958947;28;20097;-65
2022/09/11 09:42:15;;;;;;;14.13;8.77;;;19.70;99.90;;;;;;4963310;28;20042;-65
2022/09/11 09:44:50;;;;;;;12.07;6.28;;;19.80;99.90;;;;;;4937272;28;20051;-65
2022/09/11 09:47:16;;;;;;;10.75;6.45;;;19.80;99.90;;;;;;4967075;28;20051;-65
2022/09/11 09:49:43;;;;;;;6.53;5.80;;;19.90;99.90;;;;;;4970745;28;20055;-66
2022/09/11 09:52:23;;;;;;;6.35;4.45;;;20.10;99.90;;;;;;4972206;28;20047;-66
2022/09/11 09:55:16;;;;;;;8.57;6.38;;;20.30;99.90;;;;;;4970316;28;20043;-66
2022/09/11 09:57:42;;;;;;;7.68;6.03;;;20.40;99.90;;;;;;4968824;28;20058;-65
2022/09/11 10:00:08;;;;;;;12.05;8.68;;;20.60;99.90;;;;;;4971666;28;20098;-66
2022/09/11 10:02:48;;;;;;;15.98;12.13;;;20.80;99.90;;;;;;4967085;28;20082;-66
2022/09/11 10:05:25;;;;;;;11.85;10.13;;;21.00;99.90;;;;;;4965382;28;20054;-66
2022/09/11 10:08:16;;;;;;;;;;;21.20;99.90;;;;;;4971266;28;20138;-66
2022/09/11 10:10:41;;;;;;;13.75;10.43;;;21.40;99.90;;;;;;4955430;28;19933;-67
2022/09/11 10:13:19;;;;;;;18.10;11.32;;;21.60;99.90;;;;;;4969484;28;20043;-66
2022/09/11 10:15:48;;;;;;;13.30;9.80;;;21.70;99.90;;;;;;4971350;28;20042;-67
2022/09/11 10:18:32;;;;;;;13.13;9.70;;;21.90;99.90;;;;;;4969974;28;20043;-66
2022/09/11 10:21:18;;;;;;;15.80;8.65;;;21.90;99.90;;;;;;4967816;28;20126;-66
2022/09/11 10:24:15;;;;;;;12.13;9.70;;;22.10;99.90;;;;;;4969456;28;20038;-66
2022/09/11 10:26:44;;;;;;;9.10;8.13;;;22.20;99.90;;;;;;4964204;28;20341;-66
2022/09/11 10:29:18;;;;;;;11.57;8.30;;;22.10;99.90;;;;;;4962173;28;20081;-67
2022/09/11 10:31:53;;;;;;;10.60;7.40;;;22.00;99.90;;;;;;4968904;28;20043;-67
2022/09/11 10:34:22;;;;;;;16.45;9.02;;;21.80;99.90;;;;;;4964794;28;20050;-66
2022/09/11 10:36:53;;;;;;;11.80;8.70;;;21.70;99.90;;;;;;4966025;28;20053;-67
2022/09/11 10:39:20;;;;;;;10.60;7.85;;;21.60;99.90;;;;;;4969958;28;20050;-67
2022/09/11 10:41:50;;;;;;;9.23;8.25;;;21.80;99.90;;;;;;4964142;28;20066;-67
2022/09/11 10:44:16;;;;;;;11.88;7.80;;;21.90;99.90;;;;;;4966007;28;20051;-66
2022/09/11 10:46:44;;;;;;;11.45;7.53;;;22.20;99.90;;;;;;4969953;28;20038;-67
2022/09/11 10:49:10;;;;;;;10.73;8.45;;;22.40;99.90;;;;;;4969724;28;20047;-67
2022/09/11 10:51:38;;;;;;;15.23;8.90;;;22.50;99.90;;;;;;4970241;28;20510;-66
2022/09/11 10:54:43;;;;;;;9.90;7.45;;;22.60;99.90;;;;;;4970517;28;20448;-67
2022/09/11 10:57:27;;;;;;;8.93;5.47;;;22.70;99.90;;;;;;4970282;28;20054;-67
2022/09/11 11:00:20;;;;;;;8.45;7.55;;;23.00;99.90;;;;;;4968737;28;20047;-66
2022/09/11 11:02:52;;;;;;;8.77;7.88;;;22.90;99.90;;;;;;4969139;28;20107;-67
2022/09/11 11:05:28;;;;;;;17.88;9.15;;;22.80;99.90;;;;;;4969383;28;20035;-67
2022/09/11 11:08:29;;;;;;;13.88;8.25;;;22.80;99.90;;;;;;4969121;28;20053;-67
2022/09/11 11:11:13;;;;;;;9.48;7.70;;;23.00;99.90;;;;;;4969114;28;20408;-67
2022/09/11 11:14:06;;;;;;;7.90;7.10;;;23.10;99.90;;;;;;4970120;28;20432;-67
2022/09/11 11:16:51;;;;;;;8.98;7.78;;;23.20;99.90;;;;;;4965592;28;20054;-67
2022/09/11 11:19:46;;;;;;;12.88;9.15;;;23.50;99.90;;;;;;4968785;28;20408;-67
2022/09/11 11:23:01;;;;;;;11.70;7.30;;;23.50;99.90;;;;;;4944994;28;20066;-67
2022/09/11 11:25:39;;;;;;;11.02;7.75;;;23.60;99.90;;;;;;4964769;28;20070;-67
2022/09/11 11:28:24;;;;;;;16.33;7.28;;;23.50;99.90;;;;;;4967707;28;20050;-67
2022/09/11 11:31:04;;;;;;;10.65;6.40;;;23.50;99.90;;;;;;4970258;28;20060;-67
2022/09/11 11:33:34;;;;;;;13.95;8.57;;;23.60;99.90;;;;;;4968978;28;20089;-67
2022/09/11 11:36:14;;;;;;;9.25;6.40;;;23.60;99.90;;;;;;4969464;28;20039;-67
2022/09/11 11:39:00;;;;;;;13.50;8.20;;;23.80;99.90;;;;;;4970637;28;20456;-67
2022/09/11 11:41:37;;;;;;;11.35;5.88;;;23.60;99.90;;;;;;4962466;28;20038;-67
2022/09/11 11:44:09;;;;;;;8.15;7.35;;;23.60;99.90;;;;;;4964725;28;20042;-67
2022/09/11 11:46:40;;;;;;;9.88;6.20;;;23.50;99.90;;;;;;4969404;28;20050;-66
2022/09/11 11:49:39;;;;;;;9.77;6.85;;;23.30;99.90;;;;;;4967587;28;20093;-67
2022/09/11 11:52:19;;;;;;;7.80;6.55;;;23.30;99.90;;;;;;4953822;28;20051;-67
2022/09/11 11:54:57;;;;;;;9.15;6.18;;;23.10;99.90;;;;;;4982639;28;20038;-67
2022/09/11 11:57:31;;;;;;;6.72;6.10;;;23.00;99.90;;;;;;4966892;28;20050;-67
2022/09/11 12:00:08;;;;;;;7.35;6.28;;;22.80;99.90;;;;;;4961196;28;20039;-67
2022/09/11 12:03:03;;;;;;;11.43;6.82;;;22.80;99.90;;;;;;5126036;27;20755;-67
2022/09/11 12:05:31;;;;;;;;;;;22.70;99.90;;;;;;5123742;27;20200;-66
2022/09/11 12:07:57;;;;;;;10.75;7.72;;;22.50;99.90;;;;;;5124837;27;19920;-66
2022/09/11 12:10:33;;;;;;;6.90;6.13;;;22.50;99.90;;;;;;5125735;27;20043;-66
2022/09/11 12:13:11;;;;;;;13.45;7.03;;;22.30;99.90;;;;;;5121663;27;20098;-66
2022/09/11 12:15:38;;;;;;;12.68;6.63;;;22.10;99.90;;;;;;5123772;28;20051;-66
2022/09/11 12:18:21;;;;;;;11.45;6.22;;;22.00;99.90;;;;;;5116191;27;20047;-66
2022/09/11 12:20:47;;;;;;;11.48;6.38;;;21.80;99.90;;;;;;5115234;27;20051;-66
2022/09/11 12:23:33;;;;;;;9.23;6.60;;;21.70;99.90;;;;;;5122678;27;20066;-66
2022/09/11 12:26:20;;;;;;;25.33;9.55;;;21.60;99.90;;;;;;5107992;28;20047;-66
2022/09/11 12:28:47;;;;;;;21.10;10.50;;;21.40;99.90;;;;;;5122048;27;20043;-66
2022/09/11 12:31:17;;;;;;;19.95;9.30;;;21.40;99.90;;;;;;5114137;27;20066;-66
2022/09/11 12:33:46;;;;;;;14.63;8.82;;;21.30;99.90;;;;;;5122914;27;20035;-68
2022/09/11 12:36:23;;;;;;;9.07;8.18;;;21.30;99.90;;;;;;5124275;27;20527;-67
2022/09/11 12:38:56;;;;;;;15.88;9.40;;;21.30;99.90;;;;;;5116482;28;20043;-66
2022/09/11 12:41:29;;;;;;;15.77;9.18;;;21.40;99.90;;;;;;5124525;27;20047;-67
2022/09/11 12:43:55;;;;;;;8.68;7.80;;;21.30;99.90;;;;;;5116507;27;20527;-66
2022/09/11 12:46:20;;;;;;;12.90;9.27;;;21.30;99.90;;;;;;5123820;27;20039;-66
2022/09/11 12:48:59;;;;;;;13.40;10.02;;;21.20;99.90;;;;;;5114699;27;20462;-66
2022/09/11 12:51:31;;;;;;;17.77;9.38;;;21.00;99.90;;;;;;5100280;28;20748;-66
2022/09/11 12:54:15;;;;;;;8.48;7.43;;;20.70;99.90;;;;;;5101594;28;20043;-67
2022/09/11 12:56:46;;;;;;;14.82;11.55;;;20.80;99.90;;;;;;5103005;28;20054;-66